sensor_id;sensor_type;location;lat;lon;timestamp;P1;durP1;ratioP1;P2;durP2;ratioP2
335;SDS011;156;48.738;9.228;2024-03-02T00:00:48;6.05;;;3.60;;
335;SDS011;156;48.738;9.228;2024-03-02T00:03:17;6.53;;;3.85;;
335;SDS011;156;48.738;9.228;2024-03-02T00:05:44;3.88;;;3.67;;
335;SDS011;156;48.738;9.228;2024-03-02T00:08:17;2.40;;;2.20;;
335;SDS011;156;48.738;9.228;2024-03-02T00:10:49;4.28;;;2.90;;
335;SDS011;156;48.738;9.228;2024-03-02T00:13:16;1.38;;;1.27;;
335;SDS011;156;48.738;9.228;2024-03-02T00:15:48;3.47;;;3.13;;
335;SDS011;156;48.738;9.228;2024-03-02T00:18:20;19.42;;;6.20;;
335;SDS011;156;48.738;9.228;2024-03-02T00:20:52;8.27;;;6.50;;
335;SDS011;156;48.738;9.228;2024-03-02T00:23:20;4.57;;;4.28;;
335;SDS011;156;48.738;9.228;2024-03-02T00:25:48;7.32;;;6.20;;
335;SDS011;156;48.738;9.228;2024-03-02T00:28:19;1.40;;;1.30;;
335;SDS011;156;48.738;9.228;2024-03-02T00:30:56;5.80;;;3.60;;
335;SDS011;156;48.738;9.228;2024-03-02T00:33:27;5.15;;;4.45;;
335;SDS011;156;48.738;9.228;2024-03-02T00:35:56;2.53;;;2.33;;
335;SDS011;156;48.738;9.228;2024-03-02T00:38:24;4.97;;;4.40;;
335;SDS011;156;48.738;9.228;2024-03-02T00:40:52;3.75;;;3.55;;
335;SDS011;156;48.738;9.228;2024-03-02T00:43:34;1.75;;;1.65;;
335;SDS011;156;48.738;9.228;2024-03-02T00:46:09;2.55;;;2.10;;
335;SDS011;156;48.738;9.228;2024-03-02T00:48:39;8.18;;;6.00;;
335;SDS011;156;48.738;9.228;2024-03-02T00:51:11;5.30;;;4.13;;
335;SDS011;156;48.738;9.228;2024-03-02T00:53:38;3.35;;;1.88;;
335;SDS011;156;48.738;9.228;2024-03-02T00:56:05;3.03;;;2.83;;
335;SDS011;156;48.738;9.228;2024-03-02T00:58:36;1.48;;;1.38;;
335;SDS011;156;48.738;9.228;2024-03-02T01:01:03;4.50;;;3.97;;
335;SDS011;156;48.738;9.228;2024-03-02T01:03:30;6.72;;;6.13;;
335;SDS011;156;48.738;9.228;2024-03-02T01:05:59;6.18;;;4.07;;
335;SDS011;156;48.738;9.228;2024-03-02T01:08:27;7.90;;;5.95;;
335;SDS011;156;48.738;9.228;2024-03-02T01:10:54;4.13;;;3.03;;
335;SDS011;156;48.738;9.228;2024-03-02T01:13:21;3.65;;;3.45;;
335;SDS011;156;48.738;9.228;2024-03-02T01:15:49;3.00;;;2.45;;
335;SDS011;156;48.738;9.228;2024-03-02T01:18:16;3.58;;;2.45;;
335;SDS011;156;48.738;9.228;2024-03-02T01:20:43;6.78;;;5.40;;
335;SDS011;156;48.738;9.228;2024-03-02T01:23:11;8.25;;;4.20;;
335;SDS011;156;48.738;9.228;2024-03-02T01:25:38;2.33;;;2.13;;
335;SDS011;156;48.738;9.228;2024-03-02T01:28:05;8.75;;;5.57;;
335;SDS011;156;48.738;9.228;2024-03-02T01:30:33;6.65;;;3.05;;
335;SDS011;156;48.738;9.228;2024-03-02T01:33:00;12.13;;;2.60;;
335;SDS011;156;48.738;9.228;2024-03-02T01:35:27;6.55;;;6.05;;
335;SDS011;156;48.738;9.228;2024-03-02T01:37:54;3.25;;;2.75;;
335;SDS011;156;48.738;9.228;2024-03-02T01:40:22;3.05;;;2.85;;
335;SDS011;156;48.738;9.228;2024-03-02T01:42:51;2.30;;;2.10;;
335;SDS011;156;48.738;9.228;2024-03-02T01:45:19;1.75;;;1.65;;
335;SDS011;156;48.738;9.228;2024-03-02T01:47:46;3.70;;;3.50;;
335;SDS011;156;48.738;9.228;2024-03-02T01:50:13;4.47;;;3.53;;
335;SDS011;156;48.738;9.228;2024-03-02T01:52:41;7.32;;;5.22;;
335;SDS011;156;48.738;9.228;2024-03-02T01:55:09;1.88;;;1.77;;
335;SDS011;156;48.738;9.228;2024-03-02T01:57:37;1.75;;;1.65;;
335;SDS011;156;48.738;9.228;2024-03-02T02:00:05;3.80;;;3.60;;
335;SDS011;156;48.738;9.228;2024-03-02T02:02:35;1.60;;;1.50;;
335;SDS011;156;48.738;9.228;2024-03-02T02:05:02;1.50;;;1.40;;
335;SDS011;156;48.738;9.228;2024-03-02T02:07:29;2.10;;;1.95;;
335;SDS011;156;48.738;9.228;2024-03-02T02:09:56;1.55;;;1.45;;
335;SDS011;156;48.738;9.228;2024-03-02T02:12:23;1.58;;;1.48;;
335;SDS011;156;48.738;9.228;2024-03-02T02:14:51;1.50;;;1.40;;
335;SDS011;156;48.738;9.228;2024-03-02T02:17:19;1.48;;;1.38;;
335;SDS011;156;48.738;9.228;2024-03-02T02:19:45;1.80;;;1.70;;
335;SDS011;156;48.738;9.228;2024-03-02T02:22:14;1.60;;;1.50;;
335;SDS011;156;48.738;9.228;2024-03-02T02:24:41;1.50;;;1.40;;
335;SDS011;156;48.738;9.228;2024-03-02T02:27:08;1.90;;;1.80;;
335;SDS011;156;48.738;9.228;2024-03-02T02:29:35;20.25;;;1.95;;
335;SDS011;156;48.738;9.228;2024-03-02T02:32:03;2.40;;;2.20;;
335;SDS011;156;48.738;9.228;2024-03-02T02:34:30;1.65;;;1.55;;
335;SDS011;156;48.738;9.228;2024-03-02T02:36:57;4.57;;;4.28;;
335;SDS011;156;48.738;9.228;2024-03-02T02:39:25;1.38;;;1.27;;
335;SDS011;156;48.738;9.228;2024-03-02T02:41:52;3.38;;;2.65;;
335;SDS011;156;48.738;9.228;2024-03-02T02:44:19;1.70;;;1.60;;
335;SDS011;156;48.738;9.228;2024-03-02T02:46:46;4.53;;;4.25;;
335;SDS011;156;48.738;9.228;2024-03-02T02:49:12;5.18;;;3.38;;
335;SDS011;156;48.738;9.228;2024-03-02T02:51:40;3.20;;;3.00;;
335;SDS011;156;48.738;9.228;2024-03-02T02:54:07;4.40;;;4.13;;
335;SDS011;156;48.738;9.228;2024-03-02T02:56:35;1.75;;;1.65;;
335;SDS011;156;48.738;9.228;2024-03-02T02:59:02;5.05;;;4.75;;
335;SDS011;156;48.738;9.228;2024-03-02T03:01:28;2.83;;;2.63;;
335;SDS011;156;48.738;9.228;2024-03-02T03:03:55;13.50;;;7.80;;
335;SDS011;156;48.738;9.228;2024-03-02T03:06:22;4.68;;;4.38;;
335;SDS011;156;48.738;9.228;2024-03-02T03:08:49;3.65;;;3.45;;
335;SDS011;156;48.738;9.228;2024-03-02T03:11:15;4.70;;;4.40;;
335;SDS011;156;48.738;9.228;2024-03-02T03:13:43;9.05;;;3.50;;
335;SDS011;156;48.738;9.228;2024-03-02T03:16:10;5.05;;;4.78;;
335;SDS011;156;48.738;9.228;2024-03-02T03:18:37;3.42;;;3.22;;
335;SDS011;156;48.738;9.228;2024-03-02T03:21:05;2.97;;;2.08;;
335;SDS011;156;48.738;9.228;2024-03-02T03:23:32;6.90;;;4.30;;
335;SDS011;156;48.738;9.228;2024-03-02T03:25:59;2.00;;;1.90;;
335;SDS011;156;48.738;9.228;2024-03-02T03:28:26;6.72;;;5.97;;
335;SDS011;156;48.738;9.228;2024-03-02T03:30:54;6.40;;;6.03;;
335;SDS011;156;48.738;9.228;2024-03-02T03:33:21;5.10;;;4.80;;
335;SDS011;156;48.738;9.228;2024-03-02T03:35:48;5.85;;;5.55;;
335;SDS011;156;48.738;9.228;2024-03-02T03:38:15;5.43;;;5.13;;
335;SDS011;156;48.738;9.228;2024-03-02T03:40:42;2.20;;;2.03;;
335;SDS011;156;48.738;9.228;2024-03-02T03:43:10;7.10;;;4.32;;
335;SDS011;156;48.738;9.228;2024-03-02T03:45:37;6.43;;;5.05;;
335;SDS011;156;48.738;9.228;2024-03-02T03:48:05;2.60;;;2.40;;
335;SDS011;156;48.738;9.228;2024-03-02T03:50:32;4.35;;;4.03;;
335;SDS011;156;48.738;9.228;2024-03-02T03:52:59;4.03;;;3.78;;
335;SDS011;156;48.738;9.228;2024-03-02T03:55:26;16.27;;;12.52;;
335;SDS011;156;48.738;9.228;2024-03-02T03:57:53;10.75;;;9.70;;
335;SDS011;156;48.738;9.228;2024-03-02T04:00:20;3.22;;;3.03;;
335;SDS011;156;48.738;9.228;2024-03-02T04:02:47;5.30;;;5.00;;
335;SDS011;156;48.738;9.228;2024-03-02T04:05:15;10.60;;;6.65;;
335;SDS011;156;48.738;9.228;2024-03-02T04:07:42;1.88;;;1.77;;
335;SDS011;156;48.738;9.228;2024-03-02T04:10:09;3.15;;;2.95;;
335;SDS011;156;48.738;9.228;2024-03-02T04:12:37;7.88;;;1.77;;
335;SDS011;156;48.738;9.228;2024-03-02T04:15:05;2.45;;;2.25;;
335;SDS011;156;48.738;9.228;2024-03-02T04:17:32;3.90;;;2.97;;
335;SDS011;156;48.738;9.228;2024-03-02T04:20:01;6.80;;;4.68;;
335;SDS011;156;48.738;9.228;2024-03-02T04:22:32;6.18;;;5.82;;
335;SDS011;156;48.738;9.228;2024-03-02T04:25:00;2.65;;;1.70;;
335;SDS011;156;48.738;9.228;2024-03-02T04:27:29;3.90;;;2.75;;
335;SDS011;156;48.738;9.228;2024-03-02T04:29:56;3.88;;;3.13;;
335;SDS011;156;48.738;9.228;2024-03-02T04:32:25;2.70;;;2.53;;
335;SDS011;156;48.738;9.228;2024-03-02T04:34:52;2.70;;;2.45;;
335;SDS011;156;48.738;9.228;2024-03-02T04:37:19;3.05;;;2.83;;
335;SDS011;156;48.738;9.228;2024-03-02T04:39:48;5.97;;;5.38;;
335;SDS011;156;48.738;9.228;2024-03-02T04:42:15;4.35;;;3.70;;
335;SDS011;156;48.738;9.228;2024-03-02T04:44:42;6.30;;;5.95;;
335;SDS011;156;48.738;9.228;2024-03-02T04:47:08;2.22;;;2.03;;
335;SDS011;156;48.738;9.228;2024-03-02T04:49:36;3.40;;;3.20;;
335;SDS011;156;48.738;9.228;2024-03-02T04:52:03;3.75;;;3.58;;
335;SDS011;156;48.738;9.228;2024-03-02T04:54:30;6.78;;;4.05;;
335;SDS011;156;48.738;9.228;2024-03-02T04:56:58;4.90;;;4.63;;
335;SDS011;156;48.738;9.228;2024-03-02T04:59:24;5.70;;;4.90;;
335;SDS011;156;48.738;9.228;2024-03-02T05:01:51;1.80;;;1.70;;
335;SDS011;156;48.738;9.228;2024-03-02T05:04:18;3.83;;;3.60;;
335;SDS011;156;48.738;9.228;2024-03-02T05:06:46;3.85;;;3.65;;
335;SDS011;156;48.738;9.228;2024-03-02T05:09:17;4.78;;;3.10;;
335;SDS011;156;48.738;9.228;2024-03-02T05:11:44;8.27;;;6.65;;
335;SDS011;156;48.738;9.228;2024-03-02T05:14:38;7.90;;;7.47;;
335;SDS011;156;48.738;9.228;2024-03-02T05:17:05;2.42;;;2.25;;
335;SDS011;156;48.738;9.228;2024-03-02T05:19:32;8.40;;;5.15;;
335;SDS011;156;48.738;9.228;2024-03-02T05:21:58;4.28;;;4.00;;
335;SDS011;156;48.738;9.228;2024-03-02T05:24:25;3.67;;;3.42;;
335;SDS011;156;48.738;9.228;2024-03-02T05:26:53;4.28;;;4.00;;
335;SDS011;156;48.738;9.228;2024-03-02T05:29:20;3.17;;;2.97;;
335;SDS011;156;48.738;9.228;2024-03-02T05:31:48;4.65;;;4.35;;
335;SDS011;156;48.738;9.228;2024-03-02T05:34:15;4.20;;;3.38;;
335;SDS011;156;48.738;9.228;2024-03-02T05:36:43;6.50;;;5.20;;
335;SDS011;156;48.738;9.228;2024-03-02T05:39:10;5.07;;;2.70;;
335;SDS011;156;48.738;9.228;2024-03-02T05:41:37;11.60;;;5.95;;
335;SDS011;156;48.738;9.228;2024-03-02T05:44:04;5.90;;;5.63;;
335;SDS011;156;48.738;9.228;2024-03-02T05:46:31;10.95;;;5.57;;
335;SDS011;156;48.738;9.228;2024-03-02T05:48:59;1.95;;;1.25;;
335;SDS011;156;48.738;9.228;2024-03-02T05:51:27;12.70;;;8.38;;
335;SDS011;156;48.738;9.228;2024-03-02T05:53:53;7.82;;;4.85;;
335;SDS011;156;48.738;9.228;2024-03-02T05:56:20;3.78;;;3.47;;
335;SDS011;156;48.738;9.228;2024-03-02T05:58:47;4.35;;;4.10;;
335;SDS011;156;48.738;9.228;2024-03-02T06:01:26;5.13;;;3.00;;
335;SDS011;156;48.738;9.228;2024-03-02T06:03:54;1.25;;;1.15;;
335;SDS011;156;48.738;9.228;2024-03-02T06:06:23;1.35;;;1.25;;
335;SDS011;156;48.738;9.228;2024-03-02T06:08:50;2.65;;;2.10;;
335;SDS011;156;48.738;9.228;2024-03-02T06:11:17;0.65;;;0.63;;
335;SDS011;156;48.738;9.228;2024-03-02T06:13:45;1.63;;;1.52;;
335;SDS011;156;48.738;9.228;2024-03-02T06:16:12;5.18;;;2.67;;
335;SDS011;156;48.738;9.228;2024-03-02T06:18:39;11.25;;;3.28;;
335;SDS011;156;48.738;9.228;2024-03-02T06:21:06;2.58;;;2.38;;
335;SDS011;156;48.738;9.228;2024-03-02T06:23:34;3.70;;;3.50;;
335;SDS011;156;48.738;9.228;2024-03-02T06:26:01;3.28;;;3.15;;
335;SDS011;156;48.738;9.228;2024-03-02T06:28:28;6.53;;;4.53;;
335;SDS011;156;48.738;9.228;2024-03-02T06:30:55;2.00;;;1.88;;
335;SDS011;156;48.738;9.228;2024-03-02T06:33:22;12.38;;;6.45;;
335;SDS011;156;48.738;9.228;2024-03-02T06:35:49;4.72;;;3.42;;
335;SDS011;156;48.738;9.228;2024-03-02T06:38:16;6.07;;;4.50;;
335;SDS011;156;48.738;9.228;2024-03-02T06:40:45;2.47;;;2.28;;
335;SDS011;156;48.738;9.228;2024-03-02T06:43:11;3.55;;;2.35;;
335;SDS011;156;48.738;9.228;2024-03-02T06:45:38;4.68;;;3.42;;
335;SDS011;156;48.738;9.228;2024-03-02T06:48:06;6.28;;;4.55;;
335;SDS011;156;48.738;9.228;2024-03-02T06:50:33;5.55;;;4.50;;
335;SDS011;156;48.738;9.228;2024-03-02T06:53:00;4.22;;;3.97;;
335;SDS011;156;48.738;9.228;2024-03-02T06:55:29;4.18;;;2.83;;
335;SDS011;156;48.738;9.228;2024-03-02T06:57:57;4.45;;;3.60;;
335;SDS011;156;48.738;9.228;2024-03-02T07:00:24;6.40;;;3.92;;
335;SDS011;156;48.738;9.228;2024-03-02T07:02:51;8.02;;;4.78;;
335;SDS011;156;48.738;9.228;2024-03-02T07:05:18;5.63;;;4.53;;
335;SDS011;156;48.738;9.228;2024-03-02T07:07:46;5.07;;;4.00;;
335;SDS011;156;48.738;9.228;2024-03-02T07:10:13;2.03;;;1.90;;
335;SDS011;156;48.738;9.228;2024-03-02T07:12:40;3.38;;;3.17;;
335;SDS011;156;48.738;9.228;2024-03-02T07:15:09;3.85;;;3.70;;
335;SDS011;156;48.738;9.228;2024-03-02T07:18:02;12.57;;;6.20;;
335;SDS011;156;48.738;9.228;2024-03-02T07:20:29;5.28;;;4.25;;
335;SDS011;156;48.738;9.228;2024-03-02T07:22:56;5.28;;;3.60;;
335;SDS011;156;48.738;9.228;2024-03-02T07:25:23;4.90;;;4.60;;
335;SDS011;156;48.738;9.228;2024-03-02T07:27:50;5.75;;;5.38;;
335;SDS011;156;48.738;9.228;2024-03-02T07:30:19;5.20;;;2.42;;
335;SDS011;156;48.738;9.228;2024-03-02T07:32:46;3.63;;;3.42;;
335;SDS011;156;48.738;9.228;2024-03-02T07:35:18;1.92;;;1.83;;
335;SDS011;156;48.738;9.228;2024-03-02T07:37:47;2.38;;;1.73;;
335;SDS011;156;48.738;9.228;2024-03-02T07:40:14;2.53;;;2.35;;
335;SDS011;156;48.738;9.228;2024-03-02T07:42:41;5.78;;;5.47;;
335;SDS011;156;48.738;9.228;2024-03-02T07:45:08;1.50;;;1.40;;
335;SDS011;156;48.738;9.228;2024-03-02T07:47:36;4.68;;;4.13;;
335;SDS011;156;48.738;9.228;2024-03-02T07:50:03;4.30;;;2.63;;
335;SDS011;156;48.738;9.228;2024-03-02T07:52:32;7.13;;;4.95;;
335;SDS011;156;48.738;9.228;2024-03-02T07:54:59;4.10;;;3.63;;
335;SDS011;156;48.738;9.228;2024-03-02T07:57:26;6.93;;;3.95;;
335;SDS011;156;48.738;9.228;2024-03-02T07:59:53;7.30;;;5.80;;
335;SDS011;156;48.738;9.228;2024-03-02T08:02:20;2.38;;;2.17;;
335;SDS011;156;48.738;9.228;2024-03-02T08:04:49;4.68;;;3.50;;
335;SDS011;156;48.738;9.228;2024-03-02T08:07:16;0.80;;;0.70;;
335;SDS011;156;48.738;9.228;2024-03-02T08:09:43;4.63;;;3.00;;
335;SDS011;156;48.738;9.228;2024-03-02T08:12:10;3.80;;;2.47;;
335;SDS011;156;48.738;9.228;2024-03-02T08:14:37;2.75;;;2.55;;
335;SDS011;156;48.738;9.228;2024-03-02T08:17:05;1.88;;;1.42;;
335;SDS011;156;48.738;9.228;2024-03-02T08:19:35;1.00;;;0.90;;
335;SDS011;156;48.738;9.228;2024-03-02T08:22:04;1.25;;;1.15;;
335;SDS011;156;48.738;9.228;2024-03-02T08:24:31;0.80;;;0.70;;
335;SDS011;156;48.738;9.228;2024-03-02T08:26:58;1.27;;;1.13;;
335;SDS011;156;48.738;9.228;2024-03-02T08:29:25;1.58;;;1.48;;
335;SDS011;156;48.738;9.228;2024-03-02T08:31:52;2.78;;;2.55;;
335;SDS011;156;48.738;9.228;2024-03-02T08:34:19;3.30;;;2.45;;
335;SDS011;156;48.738;9.228;2024-03-02T08:36:46;4.22;;;3.03;;
335;SDS011;156;48.738;9.228;2024-03-02T08:39:15;5.60;;;3.90;;
335;SDS011;156;48.738;9.228;2024-03-02T08:41:42;8.32;;;3.92;;
335;SDS011;156;48.738;9.228;2024-03-02T08:44:10;6.18;;;4.38;;
335;SDS011;156;48.738;9.228;2024-03-02T08:46:38;3.20;;;3.00;;
335;SDS011;156;48.738;9.228;2024-03-02T08:49:05;3.88;;;3.10;;
335;SDS011;156;48.738;9.228;2024-03-02T08:51:32;5.00;;;2.58;;
335;SDS011;156;48.738;9.228;2024-03-02T08:53:59;0.60;;;0.50;;
335;SDS011;156;48.738;9.228;2024-03-02T08:56:27;1.08;;;0.98;;
335;SDS011;156;48.738;9.228;2024-03-02T08:58:54;0.95;;;0.88;;
335;SDS011;156;48.738;9.228;2024-03-02T09:01:21;1.80;;;1.38;;
335;SDS011;156;48.738;9.228;2024-03-02T09:03:48;7.22;;;2.85;;
335;SDS011;156;48.738;9.228;2024-03-02T09:06:15;1.92;;;1.80;;
335;SDS011;156;48.738;9.228;2024-03-02T09:08:43;2.22;;;1.63;;
335;SDS011;156;48.738;9.228;2024-03-02T09:11:10;0.50;;;0.40;;
335;SDS011;156;48.738;9.228;2024-03-02T09:13:39;3.80;;;2.67;;
335;SDS011;156;48.738;9.228;2024-03-02T09:16:06;1.55;;;1.45;;
335;SDS011;156;48.738;9.228;2024-03-02T09:18:36;1.98;;;1.85;;
335;SDS011;156;48.738;9.228;2024-03-02T09:21:03;2.17;;;2.00;;
335;SDS011;156;48.738;9.228;2024-03-02T09:23:30;0.50;;;0.40;;
335;SDS011;156;48.738;9.228;2024-03-02T09:25:57;2.58;;;2.38;;
335;SDS011;156;48.738;9.228;2024-03-02T09:28:24;2.88;;;2.10;;
335;SDS011;156;48.738;9.228;2024-03-02T09:30:53;2.90;;;2.05;;
335;SDS011;156;48.738;9.228;2024-03-02T09:33:19;1.70;;;1.60;;
335;SDS011;156;48.738;9.228;2024-03-02T09:35:47;0.50;;;0.30;;
335;SDS011;156;48.738;9.228;2024-03-02T09:38:14;1.23;;;1.13;;
335;SDS011;156;48.738;9.228;2024-03-02T09:40:41;1.52;;;1.40;;
335;SDS011;156;48.738;9.228;2024-03-02T09:43:08;1.27;;;1.17;;
335;SDS011;156;48.738;9.228;2024-03-02T09:45:36;4.97;;;2.63;;
335;SDS011;156;48.738;9.228;2024-03-02T09:48:04;2.53;;;2.33;;
335;SDS011;156;48.738;9.228;2024-03-02T09:50:32;1.25;;;1.05;;
335;SDS011;156;48.738;9.228;2024-03-02T09:52:59;3.42;;;1.75;;
335;SDS011;156;48.738;9.228;2024-03-02T09:55:26;4.40;;;1.38;;
335;SDS011;156;48.738;9.228;2024-03-02T09:57:53;2.35;;;2.15;;
335;SDS011;156;48.738;9.228;2024-03-02T10:00:21;2.70;;;2.22;;
335;SDS011;156;48.738;9.228;2024-03-02T10:02:48;0.60;;;0.55;;
335;SDS011;156;48.738;9.228;2024-03-02T10:05:24;1.50;;;0.88;;
335;SDS011;156;48.738;9.228;2024-03-02T10:07:58;0.77;;;0.73;;
335;SDS011;156;48.738;9.228;2024-03-02T10:10:33;1.23;;;1.13;;
335;SDS011;156;48.738;9.228;2024-03-02T10:13:05;2.35;;;1.55;;
335;SDS011;156;48.738;9.228;2024-03-02T10:15:32;2.67;;;0.98;;
335;SDS011;156;48.738;9.228;2024-03-02T10:17:59;3.22;;;3.03;;
335;SDS011;156;48.738;9.228;2024-03-02T10:20:28;0.95;;;0.60;;
335;SDS011;156;48.738;9.228;2024-03-02T10:22:55;4.18;;;2.67;;
335;SDS011;156;48.738;9.228;2024-03-02T10:25:29;0.70;;;0.45;;
335;SDS011;156;48.738;9.228;2024-03-02T10:27:57;1.55;;;1.23;;
335;SDS011;156;48.738;9.228;2024-03-02T10:30:25;1.10;;;1.00;;
335;SDS011;156;48.738;9.228;2024-03-02T10:32:52;1.17;;;1.08;;
335;SDS011;156;48.738;9.228;2024-03-02T10:35:21;3.88;;;1.27;;
335;SDS011;156;48.738;9.228;2024-03-02T10:37:49;2.67;;;2.50;;
335;SDS011;156;48.738;9.228;2024-03-02T10:40:17;1.35;;;1.25;;
335;SDS011;156;48.738;9.228;2024-03-02T10:42:47;0.40;;;0.38;;
335;SDS011;156;48.738;9.228;2024-03-02T10:45:15;1.17;;;0.93;;
335;SDS011;156;48.738;9.228;2024-03-02T10:47:43;1.80;;;1.25;;
335;SDS011;156;48.738;9.228;2024-03-02T10:50:11;1.02;;;0.63;;
335;SDS011;156;48.738;9.228;2024-03-02T10:52:38;0.50;;;0.30;;
335;SDS011;156;48.738;9.228;2024-03-02T10:55:07;0.50;;;0.20;;
335;SDS011;156;48.738;9.228;2024-03-02T10:57:39;0.70;;;0.65;;
335;SDS011;156;48.738;9.228;2024-03-02T11:00:10;2.13;;;1.02;;
335;SDS011;156;48.738;9.228;2024-03-02T11:02:42;1.35;;;1.05;;
335;SDS011;156;48.738;9.228;2024-03-02T11:05:16;1.27;;;1.17;;
335;SDS011;156;48.738;9.228;2024-03-02T11:07:52;0.50;;;0.38;;
335;SDS011;156;48.738;9.228;2024-03-02T11:10:24;0.70;;;0.60;;
335;SDS011;156;48.738;9.228;2024-03-02T11:12:52;0.60;;;0.60;;
335;SDS011;156;48.738;9.228;2024-03-02T11:15:24;2.20;;;2.00;;
335;SDS011;156;48.738;9.228;2024-03-02T11:17:51;0.77;;;0.73;;
335;SDS011;156;48.738;9.228;2024-03-02T11:20:19;0.40;;;0.30;;
335;SDS011;156;48.738;9.228;2024-03-02T11:22:47;0.50;;;0.30;;
335;SDS011;156;48.738;9.228;2024-03-02T11:25:25;1.88;;;0.73;;
335;SDS011;156;48.738;9.228;2024-03-02T11:28:00;0.70;;;0.30;;
335;SDS011;156;48.738;9.228;2024-03-02T11:30:49;0.75;;;0.60;;
335;SDS011;156;48.738;9.228;2024-03-02T11:33:26;0.50;;;0.30;;
335;SDS011;156;48.738;9.228;2024-03-02T11:35:56;0.98;;;0.50;;
335;SDS011;156;48.738;9.228;2024-03-02T11:38:30;0.75;;;0.73;;
335;SDS011;156;48.738;9.228;2024-03-02T11:41:00;1.40;;;1.30;;
335;SDS011;156;48.738;9.228;2024-03-02T11:43:28;0.73;;;0.60;;
335;SDS011;156;48.738;9.228;2024-03-02T11:45:57;0.50;;;0.30;;
335;SDS011;156;48.738;9.228;2024-03-02T11:48:25;1.98;;;1.45;;
335;SDS011;156;48.738;9.228;2024-03-02T11:50:52;0.70;;;0.40;;
335;SDS011;156;48.738;9.228;2024-03-02T11:53:20;0.60;;;0.47;;
335;SDS011;156;48.738;9.228;2024-03-02T11:55:48;0.50;;;0.32;;
335;SDS011;156;48.738;9.228;2024-03-02T11:58:17;0.60;;;0.40;;
335;SDS011;156;48.738;9.228;2024-03-02T12:00:45;1.02;;;0.85;;
335;SDS011;156;48.738;9.228;2024-03-02T12:03:13;1.60;;;0.65;;
335;SDS011;156;48.738;9.228;2024-03-02T12:05:41;0.60;;;0.40;;
335;SDS011;156;48.738;9.228;2024-03-02T12:08:08;1.50;;;0.70;;
335;SDS011;156;48.738;9.228;2024-03-02T12:10:37;0.80;;;0.80;;
335;SDS011;156;48.738;9.228;2024-03-02T12:13:04;0.60;;;0.40;;
335;SDS011;156;48.738;9.228;2024-03-02T12:15:34;0.70;;;0.57;;
335;SDS011;156;48.738;9.228;2024-03-02T12:18:02;0.60;;;0.50;;
335;SDS011;156;48.738;9.228;2024-03-02T12:20:30;0.50;;;0.30;;
335;SDS011;156;48.738;9.228;2024-03-02T12:22:58;1.45;;;0.93;;
335;SDS011;156;48.738;9.228;2024-03-02T12:25:26;1.35;;;0.57;;
335;SDS011;156;48.738;9.228;2024-03-02T12:27:53;0.75;;;0.57;;
335;SDS011;156;48.738;9.228;2024-03-02T12:30:21;2.25;;;1.65;;
335;SDS011;156;48.738;9.228;2024-03-02T12:32:50;0.50;;;0.30;;
335;SDS011;156;48.738;9.228;2024-03-02T12:35:17;0.50;;;0.30;;
335;SDS011;156;48.738;9.228;2024-03-02T12:37:46;1.00;;;0.90;;
335;SDS011;156;48.738;9.228;2024-03-02T12:40:15;1.75;;;0.77;;
335;SDS011;156;48.738;9.228;2024-03-02T12:42:43;4.70;;;3.35;;
335;SDS011;156;48.738;9.228;2024-03-02T12:45:11;1.35;;;1.25;;
335;SDS011;156;48.738;9.228;2024-03-02T12:47:39;1.02;;;0.93;;
335;SDS011;156;48.738;9.228;2024-03-02T12:50:08;0.50;;;0.30;;
335;SDS011;156;48.738;9.228;2024-03-02T12:52:36;0.52;;;0.47;;
335;SDS011;156;48.738;9.228;2024-03-02T12:55:04;0.70;;;0.65;;
335;SDS011;156;48.738;9.228;2024-03-02T12:57:32;0.85;;;0.77;;
335;SDS011;156;48.738;9.228;2024-03-02T13:00:00;1.98;;;0.63;;
335;SDS011;156;48.738;9.228;2024-03-02T13:02:30;0.60;;;0.50;;
335;SDS011;156;48.738;9.228;2024-03-02T13:04:57;0.77;;;0.73;;
335;SDS011;156;48.738;9.228;2024-03-02T13:07:26;1.98;;;1.85;;
335;SDS011;156;48.738;9.228;2024-03-02T13:09:53;0.60;;;0.50;;
335;SDS011;156;48.738;9.228;2024-03-02T13:12:21;1.38;;;1.25;;
335;SDS011;156;48.738;9.228;2024-03-02T13:14:50;0.50;;;0.50;;
335;SDS011;156;48.738;9.228;2024-03-02T13:17:18;0.50;;;0.40;;
335;SDS011;156;48.738;9.228;2024-03-02T13:19:51;0.50;;;0.40;;
335;SDS011;156;48.738;9.228;2024-03-02T13:22:19;0.50;;;0.40;;
335;SDS011;156;48.738;9.228;2024-03-02T13:24:47;0.50;;;0.50;;
335;SDS011;156;48.738;9.228;2024-03-02T13:27:14;0.50;;;0.40;;
335;SDS011;156;48.738;9.228;2024-03-02T13:29:44;2.55;;;1.45;;
335;SDS011;156;48.738;9.228;2024-03-02T13:32:11;0.50;;;0.40;;
335;SDS011;156;48.738;9.228;2024-03-02T13:34:38;0.50;;;0.40;;
335;SDS011;156;48.738;9.228;2024-03-02T13:37:05;5.00;;;2.80;;
335;SDS011;156;48.738;9.228;2024-03-02T13:39:32;0.85;;;0.85;;
335;SDS011;156;48.738;9.228;2024-03-02T13:42:06;0.57;;;0.50;;
335;SDS011;156;48.738;9.228;2024-03-02T13:44:33;0.90;;;0.80;;
335;SDS011;156;48.738;9.228;2024-03-02T13:47:00;0.50;;;0.50;;
335;SDS011;156;48.738;9.228;2024-03-02T13:49:27;1.35;;;1.00;;
335;SDS011;156;48.738;9.228;2024-03-02T13:51:58;0.52;;;0.52;;
335;SDS011;156;48.738;9.228;2024-03-02T13:54:28;1.58;;;0.93;;
335;SDS011;156;48.738;9.228;2024-03-02T13:56:55;0.65;;;0.60;;
335;SDS011;156;48.738;9.228;2024-03-02T13:59:25;0.50;;;0.50;;
335;SDS011;156;48.738;9.228;2024-03-02T14:01:52;1.48;;;1.38;;
335;SDS011;156;48.738;9.228;2024-03-02T14:04:19;0.68;;;0.63;;
335;SDS011;156;48.738;9.228;2024-03-02T14:06:46;0.50;;;0.50;;
335;SDS011;156;48.738;9.228;2024-03-02T14:09:13;0.60;;;0.55;;
335;SDS011;156;48.738;9.228;2024-03-02T14:11:40;0.50;;;0.50;;
335;SDS011;156;48.738;9.228;2024-03-02T14:14:06;0.80;;;0.70;;
335;SDS011;156;48.738;9.228;2024-03-02T14:16:35;0.55;;;0.52;;
335;SDS011;156;48.738;9.228;2024-03-02T14:19:02;0.50;;;0.50;;
335;SDS011;156;48.738;9.228;2024-03-02T14:21:30;0.50;;;0.50;;
335;SDS011;156;48.738;9.228;2024-03-02T14:23:57;0.70;;;0.60;;
335;SDS011;156;48.738;9.228;2024-03-02T14:26:24;1.33;;;1.02;;
335;SDS011;156;48.738;9.228;2024-03-02T14:28:50;0.50;;;0.50;;
335;SDS011;156;48.738;9.228;2024-03-02T14:31:17;0.50;;;0.50;;
335;SDS011;156;48.738;9.228;2024-03-02T14:33:46;0.50;;;0.50;;
335;SDS011;156;48.738;9.228;2024-03-02T14:36:13;0.50;;;0.50;;
335;SDS011;156;48.738;9.228;2024-03-02T14:38:40;0.60;;;0.60;;
335;SDS011;156;48.738;9.228;2024-03-02T14:41:07;0.50;;;0.50;;
335;SDS011;156;48.738;9.228;2024-03-02T14:43:34;1.13;;;1.02;;
335;SDS011;156;48.738;9.228;2024-03-02T14:46:02;0.50;;;0.50;;
335;SDS011;156;48.738;9.228;2024-03-02T14:48:30;0.50;;;0.50;;
335;SDS011;156;48.738;9.228;2024-03-02T14:50:58;0.50;;;0.50;;
335;SDS011;156;48.738;9.228;2024-03-02T14:53:25;1.50;;;1.25;;
335;SDS011;156;48.738;9.228;2024-03-02T14:55:52;0.50;;;0.50;;
335;SDS011;156;48.738;9.228;2024-03-02T14:58:19;0.50;;;0.40;;
335;SDS011;156;48.738;9.228;2024-03-02T15:00:46;0.80;;;0.70;;
335;SDS011;156;48.738;9.228;2024-03-02T15:03:13;0.50;;;0.47;;
335;SDS011;156;48.738;9.228;2024-03-02T15:05:40;0.50;;;0.50;;
335;SDS011;156;48.738;9.228;2024-03-02T15:08:09;0.50;;;0.50;;
335;SDS011;156;48.738;9.228;2024-03-02T15:10:36;0.60;;;0.50;;
335;SDS011;156;48.738;9.228;2024-03-02T15:13:03;0.50;;;0.50;;
335;SDS011;156;48.738;9.228;2024-03-02T15:15:33;0.50;;;0.50;;
335;SDS011;156;48.738;9.228;2024-03-02T15:18:00;0.70;;;0.65;;
335;SDS011;156;48.738;9.228;2024-03-02T15:20:29;0.80;;;0.63;;
335;SDS011;156;48.738;9.228;2024-03-02T15:22:56;0.50;;;0.50;;
335;SDS011;156;48.738;9.228;2024-03-02T15:25:24;0.60;;;0.60;;
335;SDS011;156;48.738;9.228;2024-03-02T15:27:51;0.60;;;0.60;;
335;SDS011;156;48.738;9.228;2024-03-02T15:30:18;2.20;;;1.48;;
335;SDS011;156;48.738;9.228;2024-03-02T15:32:45;0.50;;;0.40;;
335;SDS011;156;48.738;9.228;2024-03-02T15:35:12;0.50;;;0.50;;
335;SDS011;156;48.738;9.228;2024-03-02T15:37:39;0.50;;;0.50;;
335;SDS011;156;48.738;9.228;2024-03-02T15:40:06;0.50;;;0.40;;
335;SDS011;156;48.738;9.228;2024-03-02T15:42:35;0.50;;;0.40;;
335;SDS011;156;48.738;9.228;2024-03-02T15:45:02;0.50;;;0.40;;
335;SDS011;156;48.738;9.228;2024-03-02T15:47:30;10.13;;;1.15;;
335;SDS011;156;48.738;9.228;2024-03-02T15:49:57;0.50;;;0.50;;